This is the latest recevied weather packets stored in our database for station/object DB0GMN-13. If no packets are shown the sender has not sent any weather packets the latest 10 day(s).
| Time | Temp. | Humidity | Pressure | Rain* | Wind** | Luminosity | Snow |
|---|---|---|---|---|---|---|---|
| 1777857316 | -1.11° C | 97% | 1007.7 hPa | 0 mm | - | 0 W/m² | - |
| 1777856771 | -1.11° C | 93% | 1007.8 hPa | 0 mm | - | 0 W/m² | - |
| 1777856167 | -1.11° C | 95% | 1007.6 hPa | 0 mm | - | 0 W/m² | - |
| 1777850130 | -1.11° C | 95% | 1007.5 hPa | 0 mm | - | 0 W/m² | - |
| 1777849526 | -1.11° C | 95% | 1007.7 hPa | 0 mm | - | 0 W/m² | - |
| 1777848943 | -1.11° C | 93% | 1007.6 hPa | 0 mm | - | 0 W/m² | - |
| 1777845358 | -1.11° C | 96% | 1007.1 hPa | 0 mm | - | 0 W/m² | - |
| 1777844754 | -1.11° C | 96% | 1007 hPa | 0 mm | - | 0 W/m² | - |
| 1777839320 | -1.11° C | 93% | 1006.7 hPa | 0 mm | - | 0 W/m² | - |
| 1777836361 | -1.11° C | 93% | 1006.7 hPa | 0 mm | - | 0 W/m² | - |
| 1777831530 | -1.11° C | 99% | 1007 hPa | 0 mm | - | 8 W/m² | - |
| 1777826758 | -1.11° C | 96% | 1007.2 hPa | 0 mm | - | 146 W/m² | - |
| 1777826156 | 8.33° C | 96% | 1007.2 hPa | 0 mm | - | 150 W/m² | - |
| 1777824948 | - | 99% | 1007.5 hPa | 0 mm | - | 179 W/m² | - |
| 1777821325 | - | - | 1007.6 hPa | 0 mm | - | 257 W/m² | - |
| 1777818991 | -1.11° C | 95% | 1007.9 hPa | 0 mm | - | 461 W/m² | - |
| 1777818387 | -1.11° C | 99% | 1008 hPa | 0 mm | - | 473 W/m² | - |
| 1777814743 | -1.11° C | 93% | 1008.8 hPa | 0 mm | - | 680 W/m² | - |
| 1777813535 | -1.11° C | 93% | 1008.9 hPa | 0 mm | - | 606 W/m² | - |
| 1777810516 | - | - | 1009.2 hPa | 0 mm | - | 748 W/m² | - |
| 1777809370 | -33.33° C | 99% | 1009.4 hPa | 0 mm | - | 859 W/m² | - |
| 1777807557 | 20° C | 99% | 1009.7 hPa | 0 mm | - | 423 W/m² | - |
| 1777806953 | 1.11° C | 99% | 1009.7 hPa | 0 mm | - | 742 W/m² | - |
| 1777805746 | 17.78° C | 99% | 1009.9 hPa | 0 mm | - | 848 W/m² | - |
| 1777805143 | - | - | 1010 hPa | 0 mm | - | 828 W/m² | - |
* Rain latest hour (hover to see other rain measurements)
** Current wind speed in m/s (hover to see current wind gust speed)